Aérodrome :
LOGIN :

S'inscrire | Disclaimer

   EN    FR    IT 

 










Légende :    VFR   VFR Marginal   IFR   IFR Intensif   IFR Très Intensif
Visi : 
Plafond : 
>= 8 km
>= 3000ft
5 à 8 km
1000 à 3000 ft
1500m à 5 km
500 à 1000 ft
800 à 1500m
200 à 500 ft
< 800m
< 200 ft
Symboles :   Orages  Brouillard  Fortes neiges  Fortes précipitations  Vent > 20 kt
SIGMETs :   Divers  Orages  Givrage  Turbulence  Onde Orograph.  Cendres Volcan.







- Altitude de l'aérodrome : 545 ft
- Code IATA : PZY


LZPP - Piešťany

DERNIER METAR :
  • 161330Z 13012KT CAVOK 21/06 Q1021

METARs EXPIRÉS :
  • 161300Z 15014KT CAVOK 21/06 Q1022
  • 161230Z 14010KT 110V170 CAVOK 21/06 Q1022
  • 161200Z 15012KT CAVOK 20/06 Q1022
  • 161130Z 15012KT CAVOK 20/05 Q1022
  • 161100Z 14011KT CAVOK 20/05 Q1022

TAF TAF LZPP
Valide du 16 à 12h jusqu'au 16 à 21h UTC


161100Z 1612/1621 14011KT CAVOK
PROB40
TEMPO 1612/1614 16015G25KT
BECMG 1616/1618 17006KT
Pas de NOTAMs connus pour ce terrain.



MET'MAP, la Météo Aéronautique d'un coup d'oeil ! - Copyright ORBIFLY Décembre 2007 - Disclaimer

ORBIFLY MET'MAP TEAM :

Programmation & Développement : Alexandra Zaïnal
Conception & Développement : Baudouin d'Aumeries
Co-Programmation & Développement : Marc-Olivier Méhu
Soutien technique & logistique : Manuel Goepfert

Contact : metmap@orbifly.com




SOURCES & CREDITS :

   NOAA